sensor_id;sensor_type;location;lat;lon;timestamp;P1;durP1;ratioP1;P2;durP2;ratioP2
12459;SDS011;6295;49.452;8.466;2024-03-22T08:14:08;11.83;;;9.03;;
12459;SDS011;6295;49.452;8.466;2024-03-22T08:18:11;9.77;;;8.77;;
12459;SDS011;6295;49.452;8.466;2024-03-22T08:22:16;10.37;;;8.43;;
12459;SDS011;6295;49.452;8.466;2024-03-22T08:26:20;10.27;;;8.67;;
12459;SDS011;6295;49.452;8.466;2024-03-22T08:30:27;11.10;;;8.97;;
12459;SDS011;6295;49.452;8.466;2024-03-22T08:34:31;9.77;;;8.50;;
12459;SDS011;6295;49.452;8.466;2024-03-22T08:38:35;8.33;;;7.43;;
12459;SDS011;6295;49.452;8.466;2024-03-22T08:42:39;8.93;;;7.57;;
12459;SDS011;6295;49.452;8.466;2024-03-22T08:46:43;9.63;;;7.93;;
12459;SDS011;6295;49.452;8.466;2024-03-22T08:50:46;10.03;;;8.30;;
12459;SDS011;6295;49.452;8.466;2024-03-22T08:54:48;8.67;;;7.63;;
12459;SDS011;6295;49.452;8.466;2024-03-22T08:58:50;9.93;;;7.70;;
12459;SDS011;6295;49.452;8.466;2024-03-22T09:02:54;9.10;;;8.10;;
12459;SDS011;6295;49.452;8.466;2024-03-22T09:06:56;7.90;;;7.10;;
12459;SDS011;6295;49.452;8.466;2024-03-22T09:11:00;9.77;;;8.00;;
12459;SDS011;6295;49.452;8.466;2024-03-22T09:15:04;8.70;;;7.80;;
12459;SDS011;6295;49.452;8.466;2024-03-22T09:19:10;10.17;;;7.90;;
12459;SDS011;6295;49.452;8.466;2024-03-22T09:23:13;8.97;;;7.53;;
12459;SDS011;6295;49.452;8.466;2024-03-22T09:27:15;8.07;;;7.27;;
12459;SDS011;6295;49.452;8.466;2024-03-22T09:31:17;9.00;;;8.07;;
12459;SDS011;6295;49.452;8.466;2024-03-22T09:35:22;7.60;;;6.80;;
12459;SDS011;6295;49.452;8.466;2024-03-22T09:39:28;9.30;;;8.00;;
12459;SDS011;6295;49.452;8.466;2024-03-22T09:43:32;8.57;;;7.67;;
12459;SDS011;6295;49.452;8.466;2024-03-22T09:47:37;8.00;;;7.20;;
12459;SDS011;6295;49.452;8.466;2024-03-22T09:51:40;9.43;;;7.50;;
12459;SDS011;6295;49.452;8.466;2024-03-22T09:55:43;8.13;;;6.97;;
12459;SDS011;6295;49.452;8.466;2024-03-22T09:59:46;8.83;;;7.27;;
12459;SDS011;6295;49.452;8.466;2024-03-22T10:03:49;11.40;;;7.93;;
12459;SDS011;6295;49.452;8.466;2024-03-22T10:07:53;8.63;;;7.00;;
12459;SDS011;6295;49.452;8.466;2024-03-22T10:11:58;8.27;;;7.03;;
12459;SDS011;6295;49.452;8.466;2024-03-22T10:16:03;7.60;;;6.80;;
12459;SDS011;6295;49.452;8.466;2024-03-22T10:20:07;8.23;;;6.77;;
12459;SDS011;6295;49.452;8.466;2024-03-22T10:24:15;7.83;;;7.00;;
12459;SDS011;6295;49.452;8.466;2024-03-22T10:28:17;7.40;;;6.70;;
12459;SDS011;6295;49.452;8.466;2024-03-22T10:32:19;8.03;;;6.77;;
12459;SDS011;6295;49.452;8.466;2024-03-22T10:36:23;7.70;;;6.50;;
12459;SDS011;6295;49.452;8.466;2024-03-22T10:40:26;7.63;;;6.87;;
12459;SDS011;6295;49.452;8.466;2024-03-22T10:44:30;8.00;;;6.60;;
12459;SDS011;6295;49.452;8.466;2024-03-22T10:48:33;7.43;;;6.70;;
12459;SDS011;6295;49.452;8.466;2024-03-22T10:52:37;6.57;;;5.80;;
12459;SDS011;6295;49.452;8.466;2024-03-22T10:56:42;5.43;;;4.93;;
12459;SDS011;6295;49.452;8.466;2024-03-22T11:00:46;4.80;;;4.30;;
12459;SDS011;6295;49.452;8.466;2024-03-22T11:04:53;6.20;;;4.73;;
12459;SDS011;6295;49.452;8.466;2024-03-22T11:08:59;5.03;;;4.53;;
12459;SDS011;6295;49.452;8.466;2024-03-22T11:13:07;4.77;;;4.27;;
12459;SDS011;6295;49.452;8.466;2024-03-22T11:17:10;8.63;;;7.53;;
12459;SDS011;6295;49.452;8.466;2024-03-22T11:21:12;6.93;;;6.10;;
12459;SDS011;6295;49.452;8.466;2024-03-22T11:25:17;8.50;;;5.83;;
12459;SDS011;6295;49.452;8.466;2024-03-22T11:29:22;5.60;;;4.77;;
12459;SDS011;6295;49.452;8.466;2024-03-22T11:33:26;4.50;;;4.00;;
12459;SDS011;6295;49.452;8.466;2024-03-22T11:37:28;4.70;;;3.60;;
12459;SDS011;6295;49.452;8.466;2024-03-22T11:41:33;5.87;;;3.30;;
12459;SDS011;6295;49.452;8.466;2024-03-22T11:45:38;3.53;;;3.10;;
12459;SDS011;6295;49.452;8.466;2024-03-22T11:49:43;3.20;;;2.90;;
12459;SDS011;6295;49.452;8.466;2024-03-22T11:53:49;3.10;;;2.80;;
12459;SDS011;6295;49.452;8.466;2024-03-22T11:57:51;4.37;;;3.17;;
12459;SDS011;6295;49.452;8.466;2024-03-22T12:01:56;3.53;;;2.80;;
12459;SDS011;6295;49.452;8.466;2024-03-22T12:06:00;4.00;;;3.60;;
12459;SDS011;6295;49.452;8.466;2024-03-22T12:10:03;5.20;;;3.10;;
12459;SDS011;6295;49.452;8.466;2024-03-22T12:14:06;3.53;;;3.23;;
12459;SDS011;6295;49.452;8.466;2024-03-22T12:18:09;3.23;;;2.93;;
12459;SDS011;6295;49.452;8.466;2024-03-22T12:22:11;4.80;;;3.00;;
12459;SDS011;6295;49.452;8.466;2024-03-22T12:26:14;3.93;;;2.90;;
12459;SDS011;6295;49.452;8.466;2024-03-22T12:30:16;4.00;;;3.27;;
12459;SDS011;6295;49.452;8.466;2024-03-22T12:34:20;3.23;;;2.83;;
12459;SDS011;6295;49.452;8.466;2024-03-22T12:38:22;3.30;;;3.00;;
12459;SDS011;6295;49.452;8.466;2024-03-22T12:42:24;5.70;;;3.27;;
12459;SDS011;6295;49.452;8.466;2024-03-22T12:46:27;6.57;;;3.60;;
12459;SDS011;6295;49.452;8.466;2024-03-22T12:50:35;6.00;;;3.67;;
12459;SDS011;6295;49.452;8.466;2024-03-22T12:54:39;3.50;;;3.20;;
12459;SDS011;6295;49.452;8.466;2024-03-22T12:58:42;5.63;;;3.53;;
12459;SDS011;6295;49.452;8.466;2024-03-22T13:02:46;4.37;;;3.70;;
12459;SDS011;6295;49.452;8.466;2024-03-22T13:06:50;6.30;;;3.83;;
12459;SDS011;6295;49.452;8.466;2024-03-22T13:10:53;9.13;;;4.30;;
12459;SDS011;6295;49.452;8.466;2024-03-22T13:14:55;6.27;;;4.10;;
12459;SDS011;6295;49.452;8.466;2024-03-22T13:18:57;5.07;;;4.00;;
12459;SDS011;6295;49.452;8.466;2024-03-22T13:22:59;5.47;;;4.43;;
12459;SDS011;6295;49.452;8.466;2024-03-22T13:27:02;6.57;;;3.83;;
12459;SDS011;6295;49.452;8.466;2024-03-22T13:31:05;4.73;;;3.47;;
12459;SDS011;6295;49.452;8.466;2024-03-22T13:35:08;4.47;;;3.73;;
12459;SDS011;6295;49.452;8.466;2024-03-22T13:39:12;5.90;;;4.07;;
12459;SDS011;6295;49.452;8.466;2024-03-22T13:43:17;5.30;;;4.13;;
12459;SDS011;6295;49.452;8.466;2024-03-22T13:58:59;4.90;;;3.60;;
12459;SDS011;6295;49.452;8.466;2024-03-22T14:03:02;6.03;;;3.57;;
12459;SDS011;6295;49.452;8.466;2024-03-22T14:07:05;4.50;;;3.77;;
12459;SDS011;6295;49.452;8.466;2024-03-22T14:11:08;5.17;;;3.47;;
12459;SDS011;6295;49.452;8.466;2024-03-22T14:15:11;4.50;;;3.77;;
12459;SDS011;6295;49.452;8.466;2024-03-22T14:19:14;4.53;;;3.90;;
12459;SDS011;6295;49.452;8.466;2024-03-22T14:23:18;4.53;;;3.87;;
12459;SDS011;6295;49.452;8.466;2024-03-22T14:27:20;6.50;;;4.03;;
12459;SDS011;6295;49.452;8.466;2024-03-22T14:31:24;5.20;;;4.30;;
12459;SDS011;6295;49.452;8.466;2024-03-22T14:35:26;5.10;;;4.20;;
12459;SDS011;6295;49.452;8.466;2024-03-22T14:39:28;4.47;;;4.03;;
12459;SDS011;6295;49.452;8.466;2024-03-22T14:43:29;5.10;;;4.00;;
12459;SDS011;6295;49.452;8.466;2024-03-22T14:47:36;5.03;;;4.13;;
12459;SDS011;6295;49.452;8.466;2024-03-22T14:51:38;7.53;;;4.17;;
12459;SDS011;6295;49.452;8.466;2024-03-22T14:55:51;5.03;;;4.10;;
12459;SDS011;6295;49.452;8.466;2024-03-22T14:59:55;5.80;;;4.57;;
12459;SDS011;6295;49.452;8.466;2024-03-22T15:03:58;4.60;;;4.13;;
12459;SDS011;6295;49.452;8.466;2024-03-22T15:08:01;5.87;;;4.10;;
12459;SDS011;6295;49.452;8.466;2024-03-22T15:12:05;4.53;;;4.00;;
12459;SDS011;6295;49.452;8.466;2024-03-22T15:16:09;4.53;;;3.67;;
12459;SDS011;6295;49.452;8.466;2024-03-22T15:20:13;6.03;;;3.90;;
12459;SDS011;6295;49.452;8.466;2024-03-22T15:24:15;4.77;;;3.70;;
12459;SDS011;6295;49.452;8.466;2024-03-22T15:28:17;4.20;;;3.77;;
12459;SDS011;6295;49.452;8.466;2024-03-22T15:32:20;4.27;;;3.70;;
12459;SDS011;6295;49.452;8.466;2024-03-22T15:36:24;4.20;;;3.80;;
12459;SDS011;6295;49.452;8.466;2024-03-22T15:40:27;3.80;;;3.50;;
12459;SDS011;6295;49.452;8.466;2024-03-22T15:44:29;4.73;;;3.63;;
12459;SDS011;6295;49.452;8.466;2024-03-22T15:48:31;3.70;;;3.40;;
12459;SDS011;6295;49.452;8.466;2024-03-22T15:52:35;4.43;;;4.00;;
12459;SDS011;6295;49.452;8.466;2024-03-22T15:56:37;7.30;;;4.37;;
12459;SDS011;6295;49.452;8.466;2024-03-22T16:00:40;4.60;;;3.80;;
12459;SDS011;6295;49.452;8.466;2024-03-22T16:04:42;4.87;;;4.30;;
12459;SDS011;6295;49.452;8.466;2024-03-22T16:08:46;5.83;;;4.13;;
12459;SDS011;6295;49.452;8.466;2024-03-22T16:12:48;4.67;;;4.20;;
12459;SDS011;6295;49.452;8.466;2024-03-22T16:16:51;6.60;;;5.03;;
12459;SDS011;6295;49.452;8.466;2024-03-22T16:20:54;5.67;;;4.90;;
12459;SDS011;6295;49.452;8.466;2024-03-22T16:24:57;5.57;;;4.60;;
12459;SDS011;6295;49.452;8.466;2024-03-22T16:28:59;5.17;;;4.57;;
12459;SDS011;6295;49.452;8.466;2024-03-22T16:33:03;7.17;;;5.60;;
12459;SDS011;6295;49.452;8.466;2024-03-22T16:37:05;5.50;;;4.90;;
12459;SDS011;6295;49.452;8.466;2024-03-22T16:41:09;7.10;;;5.40;;
12459;SDS011;6295;49.452;8.466;2024-03-22T16:45:14;7.33;;;4.63;;
12459;SDS011;6295;49.452;8.466;2024-03-22T16:49:17;6.90;;;5.87;;
12459;SDS011;6295;49.452;8.466;2024-03-22T16:53:18;7.87;;;5.37;;
12459;SDS011;6295;49.452;8.466;2024-03-22T16:57:21;6.03;;;5.30;;
12459;SDS011;6295;49.452;8.466;2024-03-22T17:01:23;6.53;;;5.87;;
12459;SDS011;6295;49.452;8.466;2024-03-22T17:05:26;6.93;;;5.10;;
12459;SDS011;6295;49.452;8.466;2024-03-22T17:09:28;5.63;;;4.63;;
12459;SDS011;6295;49.452;8.466;2024-03-22T17:13:31;6.77;;;4.93;;
12459;SDS011;6295;49.452;8.466;2024-03-22T17:17:33;5.57;;;4.60;;
12459;SDS011;6295;49.452;8.466;2024-03-22T17:21:37;5.93;;;5.10;;
12459;SDS011;6295;49.452;8.466;2024-03-22T17:25:40;8.40;;;5.07;;
12459;SDS011;6295;49.452;8.466;2024-03-22T17:29:43;6.57;;;5.83;;
12459;SDS011;6295;49.452;8.466;2024-03-22T17:33:45;6.13;;;5.47;;
12459;SDS011;6295;49.452;8.466;2024-03-22T17:37:47;6.50;;;5.50;;
12459;SDS011;6295;49.452;8.466;2024-03-22T17:41:50;8.60;;;5.43;;
12459;SDS011;6295;49.452;8.466;2024-03-22T17:46:00;8.10;;;5.27;;
12459;SDS011;6295;49.452;8.466;2024-03-22T17:50:06;17.57;;;5.90;;
12459;SDS011;6295;49.452;8.466;2024-03-22T17:54:08;7.97;;;5.50;;
